Etusivu
METAR-TAF:

METAR-TAF

Lentoasemat :

Gabès, Tunisia

Leveyspiiri: 33-53N, Pituuspiiri: 010-06E, korkeus merenpinnasta: 4 m

Tämänhetkinen sää

Tämä raportti tehtiin 26 minuuttia sitten, kello 23.00 UTC
Tuuli 6 kn lännestä
Lämpötila 29°C
Kosteus 23%
Ilmanpaine 1014 hPa
Näkyvyys 10 km tai enemmän
ei pilviä alle 1500 m:ssä eikä cumulonimbus-pilviä

METAR: DTTG 242300Z 28006KT CAVOK 29/06 Q1014 NOSIG

Aika: 00:26 (23:26 UTC)

Sääennuste

Tämä raportti tehtiin 2 tuntia ja 26 minuuttia sitten, kello 21.00 UTC
Ennuste voimassa 24. päivästä klo 22 UTC - 25. päivään klo 07 UTC
Tuuli 6 kn etelästä/lounaasta
Näkyvyys: 8000 m
Muutamia pilviä 3000 ft:n korkeudessa

TAF: DTTG 242100Z 2422/2507 20006KT 8000 FEW030

Säähavainnot ja -ennusteet yli 4000 lentoasemalta (METAR- ja TAF-raportit).

Käytössä olevat sääasemat on merkitty karttaan keltaisilla ja punaisilla pisteillä.

Aseta hiiri pisteen päälle nähdäksesi sääaseman nimen.

Klikkaa sitten nähdäksesi säähavainnot ja -ennusteet.

Kartan vaihtaminen: klikkaa mustalla rastilla varustettuja vihreitä pisteitä, niin voit zoomata sisään; viivalla varustettua vihreää pistettä, niin voit zoomata ulos tai vihreitä nuolia, niin pääset viereisille kartoille.


METAR-TAF: